Observations for BARCELONA AIRPORT, Spain (LEBL)

LEBL 260700Z 06012KT 9999 FEW007 SCT010 20/17 Q1015 NOSIG   
LEBL 260630Z 06012KT 9999 FEW007 BKN010 20/17 Q1015 NOSIG   
LEBL 260600Z 06011KT 9999 FEW006 BKN010 19/17 Q1015 NOSIG   
LEBL 260530Z 06010KT 9999 SCT007 SCT010 20/18 Q1015 NOSIG   
LEBL 260500Z 04010KT 9999 SCT005 SCT010 20/18 Q1015 NOSIG   
LEBL 260430Z 03008KT 9999 SCT005 18/13 Q1015 NOSIG  
LEBL 260400Z 05009KT 9999 FEW015 19/13 Q1015 NOSIG  
LEBL 260330Z VRB02KT CAVOK 19/12 Q1015 NOSIG
LEBL 260300Z VRB02KT CAVOK 19/13 Q1015 NOSIG
LEBL 260230Z VRB02KT CAVOK 20/12 Q1015 NOSIG
LEBL 260200Z VRB02KT CAVOK 20/14 Q1015 NOSIG
LEBL 260130Z 30005KT CAVOK 20/14 Q1015 NOSIG
LEBL 260100Z 26003KT CAVOK 19/14 Q1014 NOSIG
LEBL 260030Z VRB02KT CAVOK 19/16 Q1014 NOSIG
LEBL 260000Z 26006KT CAVOK 18/15 Q1014 NOSIG
LEBL 252330Z 24005KT CAVOK 19/15 Q1014 NOSIG
LEBL 252300Z 23003KT CAVOK 20/16 Q1015 NOSIG
LEBL 252230Z 22007KT CAVOK 20/16 Q1015 NOSIG
LEBL 252200Z 23006KT CAVOK 21/16 Q1015 NOSIG
LEBL 252130Z 22008KT CAVOK 21/16 Q1014 NOSIG
LEBL 252100Z 22009KT CAVOK 21/17 Q1014 NOSIG
LEBL 252030Z 22010KT CAVOK 22/15 Q1014 NOSIG
LEBL 252000Z 22009KT CAVOK 22/15 Q1013 NOSIG
LEBL 251930Z 22009KT CAVOK 22/14 Q1013 NOSIG
LEBL 251900Z 21011KT CAVOK 23/14 Q1013 NOSIG
LEBL 251830Z 22013KT CAVOK 23/15 Q1013 NOSIG
LEBL 251800Z 22013KT CAVOK 24/15 Q1013 NOSIG
LEBL 251730Z 22013KT CAVOK 24/14 Q1013 NOSIG
LEBL 251700Z 22014KT CAVOK 24/15 Q1013 NOSIG
LEBL 251630Z 22016KT 9999 FEW025 25/14 Q1013 NOSIG  
LEBL 251600Z 22017KT 9999 FEW025 25/14 Q1013 NOSIG  
LEBL 251530Z 22017KT 9999 FEW025 25/15 Q1013 NOSIG  
LEBL 251500Z 22017KT 9999 FEW025 25/17 Q1014 NOSIG  
LEBL 251430Z 22018KT 9999 FEW025 24/17 Q1014 NOSIG  
LEBL 251400Z 22018KT 9999 FEW025 24/18 Q1014 NOSIG  
LEBL 251330Z 22019KT 9999 FEW025 25/16 Q1014 NOSIG  
LEBL 251300Z 22018KT 9999 FEW025 25/14 Q1014 NOSIG  
LEBL 251230Z 22018KT 9999 FEW025 25/14 Q1014 NOSIG  
LEBL 251200Z 22016KT 9999 FEW025 25/16 Q1014 NOSIG  
LEBL 251130Z 21015KT CAVOK 25/17 Q1015 NOSIG
LEBL 251100Z 22014KT CAVOK 24/17 Q1015 NOSIG
LEBL 251030Z 22011KT CAVOK 24/19 Q1015 NOSIG
LEBL 251000Z 21010KT CAVOK 24/18 Q1015 NOSIG
LEBL 250930Z 21008KT 180V240 CAVOK 24/16 Q1015 NOSIG
LEBL 250900Z 23009KT CAVOK 24/17 Q1015 NOSIG
LEBL 250830Z 23007KT 170V250 CAVOK 24/16 Q1015 NOSIG
LEBL 250800Z 25004KT 200V300 CAVOK 24/15 Q1015 NOSIG
LEBL 250730Z 27005KT 220V320 CAVOK 23/14 Q1015 NOSIG
LEBL 250700Z 29007G17KT 260V340 CAVOK 23/12 Q1015 NOSIG 
LEBL 250630Z 32008G18KT 9999 FEW020 21/12 Q1015 NOSIG